KMUI/MUI METAR and TAF weather

Enter ICAO airport designator
Station Type Date Time Source
KMUI METAR 2019/02/21 11:35 UTC NOAA

KMUI 211135Z AUTO 00000KT 3SM BR BKN005 00/M01 A2996 RMK AO2 BKN V SCT SLP154 PNO $


Station Type Date Time Source
KMUI Decoded METAR 2019/02/21 11:35 UTC NOAA

Muir Army Air Field / Indiantown, PA, United States (KMUI) 40-26N 076-34W
Feb 21, 2019 - 06:35 AM EST / 2019.02.21 1135 UTC
Wind: Calm:0
Visibility: 3 mile(s):0
Sky conditions: mostly cloudy
Weather: mist
Temperature: 32 F (0 C)
Dew Point: 30 F (-1 C)
Relative Humidity: 92%
Pressure (altimeter): 29.96 in. Hg (1014 hPa)
ob: KMUI 211135Z AUTO 00000KT 3SM BR BKN005 00/M01 A2996 RMK AO2 BKN V SCT SLP154 PNO
cycle: 11

Station Type Date Time Source
KMUI TAF 2019/02/21 11:18 UTC NOAA

TAF TAF KMUI 211100Z 2111/2217 VRB06KT 3200 BR OVC012 QNH2995INS
BECMG 2114/2116 28009KT 9999 NSW FEW006 SCT020 QNH3002INS
BECMG 2117/2118 29012G18KT 9999 FEW020 FEW150 520053 QNH3005INS
BECMG 2208/2209 VRB06KT 9999 SCT015 520023 QNH3028INS TX08/2117Z TNM02/2208Z


Example: see airport list